Decoded Metar for KVTN (VALENTINE in NE, USA) (IATA:VTN) | Meteo·Mobile Aviation Weather
aviador You're here:

KVTN Decoded Metar

VALENTINE in NE, USA
Report Time2019-05-21 10:52:00
UTC Time2019-05-21 11:03:26
Flight Rules mvfr MVFR
Wind070° at 13 kt
W.Decomp.*RWY 03: 11.0 kt HW 6.9 kt RCW
RWY 14: 2.7 kt HW 12.7 kt LCW
Visibility9656 m
Phenomena:Light Rain
Mist
Clouds:Overcast 011 Hf
Expected CloudBase > 1,200 ft AGL from Temp-Dew spread
Ceiling1,100 ft
Temp07°C (ISA -3)
Dew Point04°C (81% RH)
AAT1.0°C
QNH1009 hPa
Density Alt2,497 ft
Elevation2,585 ft
Report Wrong Elevation
Raw Report
KVTN 211052Z AUTO 07013KT 6SM -RA BR OVC011 07/04 A2980 RMK AO2
SLP104 P0005 T00670044=

Extra information for KVTN:More info

Metar Taf Metar & Taf Last 4 Metars F.Rules Stats Wind Profile Meteogram Temp Stats Airport Information Weather charts Add Link Nearby VenuesMetar ALERT Operation Metar Decoded Social comments

AIRNAV info for KVTN